createdAt,value
2019-04-04T00:00:53.047Z,13.54
2019-04-04T00:01:53.107Z,13.54
2019-04-04T00:02:53.003Z,13.55
2019-04-04T00:03:52.989Z,13.54
2019-04-04T00:04:53.016Z,13.55
2019-04-04T00:05:53.041Z,13.62
2019-04-04T00:06:52.965Z,13.57
2019-04-04T00:07:53.023Z,13.59
2019-04-04T00:08:52.937Z,13.54
2019-04-04T00:09:52.925Z,13.59
2019-04-04T00:10:52.909Z,13.49
2019-04-04T00:11:52.944Z,13.46
2019-04-04T00:12:52.893Z,13.52
2019-04-04T00:13:52.903Z,13.48
2019-04-04T00:14:52.899Z,13.42
2019-04-04T00:15:52.865Z,13.52
2019-04-04T00:16:52.870Z,13.44
2019-04-04T00:17:53.805Z,13.45
2019-04-04T00:18:52.827Z,13.44
2019-04-04T00:19:52.809Z,13.46
2019-04-04T00:20:52.806Z,13.45
2019-04-04T00:21:52.821Z,13.49
2019-04-04T00:22:52.781Z,13.45
2019-04-04T00:23:52.784Z,13.32
2019-04-04T00:24:52.753Z,13.38
2019-04-04T00:25:52.804Z,13.32
2019-04-04T00:26:52.757Z,13.48
2019-04-04T00:27:52.724Z,13.41
2019-04-04T00:28:52.706Z,13.42
2019-04-04T00:29:52.700Z,13.42
2019-04-04T00:30:52.691Z,13.32
2019-04-04T00:31:52.704Z,13.36
2019-04-04T00:32:53.326Z,13.29
2019-04-04T00:33:53.884Z,13.33
2019-04-04T00:34:52.649Z,13.32
2019-04-04T00:35:52.638Z,13.28
2019-04-04T00:36:52.656Z,13.23
2019-04-04T00:37:52.617Z,13.28
2019-04-04T00:38:52.613Z,13.22
2019-04-04T00:39:52.590Z,13.20
2019-04-04T00:40:52.579Z,13.30
2019-04-04T00:41:52.561Z,13.17
2019-04-04T00:42:52.577Z,13.33
2019-04-04T00:43:52.539Z,13.22
2019-04-04T00:44:53.906Z,13.23
2019-04-04T00:45:52.526Z,13.12
2019-04-04T00:46:52.524Z,13.12
2019-04-04T00:47:52.518Z,13.15
2019-04-04T00:48:52.503Z,13.07
2019-04-04T00:49:52.479Z,13.05
2019-04-04T00:50:52.472Z,13.05
2019-04-04T00:51:52.458Z,13.10
2019-04-04T00:52:52.474Z,13.00
2019-04-04T00:53:52.436Z,13.04
2019-04-04T00:54:52.421Z,13.03
2019-04-04T00:55:52.409Z,12.96
2019-04-04T00:56:52.400Z,13.01
2019-04-04T00:57:52.416Z,13.00
2019-04-04T00:58:52.582Z,12.96
2019-04-04T00:59:53.591Z,12.97
2019-04-04T01:00:52.942Z,12.96
2019-04-04T01:01:52.341Z,12.93
2019-04-04T01:02:52.362Z,12.96
2019-04-04T01:03:52.317Z,12.90
2019-04-04T01:04:52.349Z,12.90
2019-04-04T01:05:52.318Z,12.89
2019-04-04T01:06:52.294Z,12.83
2019-04-04T01:07:52.302Z,12.85
2019-04-04T01:08:52.324Z,12.87
2019-04-04T01:09:52.255Z,12.89
2019-04-04T01:10:52.260Z,12.85
2019-04-04T01:11:52.227Z,12.86
2019-04-04T01:12:52.733Z,12.83
2019-04-04T01:13:52.247Z,12.89
2019-04-04T01:14:52.195Z,12.79
2019-04-04T01:15:52.188Z,12.77
2019-04-04T01:16:52.169Z,12.78
2019-04-04T01:17:52.162Z,12.79
2019-04-04T01:18:52.174Z,12.82
2019-04-04T01:19:52.157Z,12.78
2019-04-04T01:20:52.124Z,12.65
2019-04-04T01:21:53.329Z,12.67
2019-04-04T01:22:52.117Z,12.67
2019-04-04T01:23:52.090Z,12.67
2019-04-04T01:24:52.079Z,12.64
2019-04-04T01:25:52.081Z,12.68
2019-04-04T01:26:52.091Z,12.67
2019-04-04T01:27:52.050Z,12.67
2019-04-04T01:28:52.037Z,12.54
2019-04-04T01:29:52.022Z,12.65
2019-04-04T01:30:52.017Z,12.56
2019-04-04T01:31:52.053Z,12.67
2019-04-04T01:32:51.994Z,12.54
2019-04-04T01:33:51.984Z,12.60
2019-04-04T01:34:52.701Z,12.49
2019-04-04T01:35:54.054Z,12.57
2019-04-04T01:36:51.948Z,12.50
2019-04-04T01:37:51.960Z,12.54
2019-04-04T01:38:51.921Z,12.53
2019-04-04T01:39:51.913Z,12.62
2019-04-04T01:40:54.801Z,12.52
2019-04-04T01:41:51.946Z,12.50
2019-04-04T01:42:51.876Z,12.42
2019-04-04T01:44:04.349Z,12.52
2019-04-04T01:44:52.854Z,12.46
2019-04-04T01:45:51.841Z,12.49
2019-04-04T01:46:51.835Z,12.41
2019-04-04T01:47:51.853Z,12.45
2019-04-04T01:48:51.844Z,12.45
2019-04-04T01:49:52.443Z,12.46
2019-04-04T01:50:53.398Z,12.45
2019-04-04T01:51:51.780Z,12.46
2019-04-04T01:52:51.826Z,12.47
2019-04-04T01:53:51.758Z,12.32
2019-04-04T01:54:51.786Z,12.45
2019-04-04T01:55:51.727Z,12.37
2019-04-04T01:56:51.717Z,12.41
2019-04-04T01:57:51.714Z,12.41
2019-04-04T01:58:51.733Z,12.39
2019-04-04T01:59:51.685Z,12.29
2019-04-04T02:00:51.675Z,12.29
2019-04-04T02:01:51.658Z,12.34
2019-04-04T02:02:51.831Z,12.35
2019-04-04T02:03:51.822Z,12.35
2019-04-04T02:04:51.646Z,12.35
2019-04-04T02:05:51.619Z,12.32
2019-04-04T02:06:51.603Z,12.23
2019-04-04T02:07:51.596Z,12.23
2019-04-04T02:08:51.593Z,12.31
2019-04-04T02:09:51.602Z,12.28
2019-04-04T02:10:51.569Z,12.29
2019-04-04T02:11:51.562Z,12.29
2019-04-04T02:12:51.543Z,12.23
2019-04-04T02:13:51.526Z,12.23
2019-04-04T02:14:51.514Z,12.14
2019-04-04T02:15:51.528Z,12.23
2019-04-04T02:16:51.666Z,12.17
2019-04-04T02:17:52.978Z,12.14
2019-04-04T02:18:53.541Z,12.12
2019-04-04T02:19:51.460Z,12.09
2019-04-04T02:20:51.496Z,12.20
2019-04-04T02:21:51.441Z,12.13
2019-04-04T02:22:51.430Z,12.07
2019-04-04T02:23:51.410Z,12.01
2019-04-04T02:24:51.403Z,11.98
2019-04-04T02:25:51.446Z,12.04
2019-04-04T02:26:51.411Z,11.95
2019-04-04T02:27:51.363Z,12.04
2019-04-04T02:28:51.355Z,11.99
2019-04-04T02:29:51.346Z,12.01
2019-04-04T02:30:51.404Z,11.96
2019-04-04T02:31:53.561Z,11.95
2019-04-04T02:32:51.326Z,11.96
2019-04-04T02:33:51.344Z,11.94
2019-04-04T02:34:51.289Z,11.95
2019-04-04T02:35:51.294Z,11.95
2019-04-04T02:36:51.307Z,11.96
2019-04-04T02:37:55.050Z,11.90
2019-04-04T02:38:51.239Z,11.94
2019-04-04T02:39:51.233Z,11.94
2019-04-04T02:40:51.235Z,11.88
2019-04-04T02:41:51.211Z,11.88
2019-04-04T02:42:53.947Z,11.86
2019-04-04T02:43:51.183Z,11.88
2019-04-04T02:44:51.176Z,11.90
2019-04-04T02:45:51.175Z,11.85
2019-04-04T02:46:51.195Z,11.90
2019-04-04T02:47:51.467Z,11.83
2019-04-04T02:48:51.134Z,11.88
2019-04-04T02:49:51.122Z,11.90
2019-04-04T02:50:51.108Z,11.88
2019-04-04T02:51:51.124Z,11.86
2019-04-04T02:52:51.131Z,11.83
2019-04-04T02:53:52.899Z,11.82
2019-04-04T02:54:51.064Z,11.79
2019-04-04T02:55:51.060Z,11.80
2019-04-04T02:56:51.053Z,11.69
2019-04-04T02:57:51.066Z,11.86
2019-04-04T02:58:51.021Z,11.79
2019-04-04T02:59:53.281Z,11.75
2019-04-04T03:00:50.998Z,11.80
2019-04-04T03:01:50.982Z,11.80
2019-04-04T03:02:50.998Z,11.72
2019-04-04T03:03:50.977Z,11.73
2019-04-04T03:04:50.948Z,11.73
2019-04-04T03:05:52.113Z,11.73
2019-04-04T03:06:50.934Z,11.76
2019-04-04T03:07:50.939Z,11.67
2019-04-04T03:08:50.908Z,11.69
2019-04-04T03:09:50.896Z,11.72
2019-04-04T03:10:50.888Z,11.69
2019-04-04T03:11:53.531Z,11.72
2019-04-04T03:12:50.859Z,11.69
2019-04-04T03:13:50.860Z,11.73
2019-04-04T03:14:51.046Z,11.72
2019-04-04T03:15:50.847Z,11.70
2019-04-04T03:16:50.894Z,11.73
2019-04-04T03:17:50.812Z,11.65
2019-04-04T03:18:50.820Z,11.73
2019-04-04T03:19:50.809Z,11.62
2019-04-04T03:20:50.849Z,11.75
2019-04-04T03:21:54.775Z,11.60
2019-04-04T03:22:51.779Z,11.65
2019-04-04T03:23:50.770Z,11.57
2019-04-04T03:24:50.728Z,11.54
2019-04-04T03:25:50.719Z,11.54
2019-04-04T03:26:52.623Z,11.44
2019-04-04T03:27:50.694Z,11.44
2019-04-04T03:28:50.759Z,11.46
2019-04-04T03:29:50.666Z,11.46
2019-04-04T03:31:00.933Z,11.49
2019-04-04T03:31:51.645Z,11.42
2019-04-04T03:32:54.201Z,11.40
2019-04-04T03:33:50.628Z,11.40
2019-04-04T03:34:51.768Z,11.44
2019-04-04T03:35:50.607Z,11.42
2019-04-04T03:36:50.594Z,11.44
2019-04-04T03:37:50.585Z,11.39
2019-04-04T03:38:50.577Z,11.49
2019-04-04T03:39:53.123Z,11.49
2019-04-04T03:40:50.544Z,11.37
2019-04-04T03:41:50.538Z,11.33
2019-04-04T03:42:50.528Z,11.43
2019-04-04T03:43:50.517Z,11.37
2019-04-04T03:44:53.522Z,11.39
2019-04-04T03:45:50.522Z,11.39
2019-04-04T03:46:50.497Z,11.39
2019-04-04T03:47:50.476Z,11.36
2019-04-04T03:48:51.163Z,11.35
2019-04-04T03:49:50.451Z,11.33
2019-04-04T03:50:50.464Z,11.35
2019-04-04T03:51:50.434Z,11.32
2019-04-04T03:52:50.419Z,11.32
2019-04-04T03:53:50.432Z,11.25
2019-04-04T03:54:55.230Z,11.32
2019-04-04T03:55:51.422Z,11.37
2019-04-04T03:56:50.404Z,11.33
2019-04-04T03:57:51.878Z,11.32
2019-04-04T03:58:50.347Z,11.22
2019-04-04T03:59:50.364Z,11.27
2019-04-04T04:00:50.344Z,11.28
2019-04-04T04:01:50.346Z,11.25
2019-04-04T04:02:50.957Z,11.29
2019-04-04T04:03:52.516Z,11.29
2019-04-04T04:04:50.285Z,11.27
2019-04-04T04:05:50.268Z,11.22
2019-04-04T04:06:50.319Z,11.18
2019-04-04T04:07:50.254Z,11.21
2019-04-04T04:08:53.629Z,11.21
2019-04-04T04:09:50.221Z,11.19
2019-04-04T04:10:50.229Z,11.19
2019-04-04T04:11:50.220Z,11.18
2019-04-04T04:12:50.244Z,11.14
2019-04-04T04:13:50.249Z,11.09
2019-04-04T04:14:53.837Z,11.07
2019-04-04T04:15:50.168Z,11.03
2019-04-04T04:16:50.144Z,11.11
2019-04-04T04:17:50.171Z,11.07
2019-04-04T04:18:54.162Z,11.09
2019-04-04T04:19:51.111Z,11.14
2019-04-04T04:20:50.123Z,11.09
2019-04-04T04:21:50.089Z,11.11
2019-04-04T04:22:50.898Z,11.06
2019-04-04T04:23:50.155Z,11.00
2019-04-04T04:24:50.063Z,11.02
2019-04-04T04:25:50.055Z,11.07
2019-04-04T04:26:50.046Z,10.97
2019-04-04T04:27:50.030Z,11.00
2019-04-04T04:28:53.087Z,11.02
2019-04-04T04:29:50.031Z,11.02
2019-04-04T04:30:50.002Z,10.96
2019-04-04T04:31:49.990Z,10.94
2019-04-04T04:32:49.966Z,10.97
2019-04-04T04:33:49.964Z,10.92
2019-04-04T04:34:49.989Z,10.85
2019-04-04T04:35:49.950Z,10.97
2019-04-04T04:36:49.944Z,10.99
2019-04-04T04:37:53.431Z,10.85
2019-04-04T04:38:49.911Z,10.78
2019-04-04T04:39:49.945Z,10.85
2019-04-04T04:40:49.896Z,10.79
2019-04-04T04:41:52.977Z,10.74
2019-04-04T04:42:49.862Z,10.85
2019-04-04T04:43:49.882Z,10.81
2019-04-04T04:44:49.858Z,10.91
2019-04-04T04:45:49.837Z,10.89
2019-04-04T04:46:50.976Z,10.91
2019-04-04T04:47:49.808Z,10.88
2019-04-04T04:48:49.792Z,10.92
2019-04-04T04:49:49.829Z,10.92
2019-04-04T04:50:49.794Z,10.91
2019-04-04T04:51:49.764Z,10.81
2019-04-04T04:52:49.765Z,10.91
2019-04-04T04:53:50.660Z,10.91
2019-04-04T04:54:49.736Z,10.99
2019-04-04T04:55:49.783Z,10.86
2019-04-04T04:56:49.712Z,10.91
2019-04-04T04:57:49.694Z,10.86
2019-04-04T04:58:50.422Z,10.85
2019-04-04T04:59:49.673Z,10.86
2019-04-04T05:00:49.659Z,10.79
2019-04-04T05:01:50.670Z,10.82
2019-04-04T05:02:52.773Z,10.82
2019-04-04T05:03:50.813Z,10.91
2019-04-04T05:04:49.624Z,10.86
2019-04-04T05:05:49.602Z,10.85
2019-04-04T05:06:49.618Z,10.86
2019-04-04T05:07:49.605Z,10.74
2019-04-04T05:08:49.576Z,10.84
2019-04-04T05:09:49.561Z,10.79
2019-04-04T05:10:49.550Z,10.81
2019-04-04T05:11:50.347Z,10.88
2019-04-04T05:12:52.839Z,10.81
2019-04-04T05:13:49.574Z,10.86
2019-04-04T05:14:49.508Z,10.86
2019-04-04T05:15:49.486Z,10.76
2019-04-04T05:16:49.481Z,10.82
2019-04-04T05:17:49.518Z,10.82
2019-04-04T05:18:49.494Z,10.85
2019-04-04T05:19:50.139Z,10.70
2019-04-04T05:20:49.437Z,10.82
2019-04-04T05:21:49.427Z,10.79
2019-04-04T05:22:49.423Z,10.82
2019-04-04T05:23:49.448Z,10.68
2019-04-04T05:25:06.874Z,10.68
2019-04-04T05:25:53.983Z,10.73
2019-04-04T05:26:49.370Z,10.71
2019-04-04T05:27:49.388Z,10.79
2019-04-04T05:28:49.365Z,10.74
2019-04-04T05:29:49.365Z,10.71
2019-04-04T05:30:49.388Z,10.78
2019-04-04T05:31:50.053Z,10.76
2019-04-04T05:32:51.773Z,10.81
2019-04-04T05:33:49.306Z,10.85
2019-04-04T05:34:49.283Z,10.86
2019-04-04T05:35:49.273Z,10.91
2019-04-04T05:36:49.290Z,10.73
2019-04-04T05:37:49.245Z,10.84
2019-04-04T05:38:49.235Z,10.71
2019-04-04T05:39:51.351Z,10.74
2019-04-04T05:40:49.246Z,10.81
2019-04-04T05:41:49.240Z,10.81
2019-04-04T05:42:49.233Z,10.79
2019-04-04T05:43:49.182Z,10.78
2019-04-04T05:44:49.272Z,10.82
2019-04-04T05:45:49.163Z,10.81
2019-04-04T05:46:51.157Z,10.78
2019-04-04T05:47:49.127Z,10.79
2019-04-04T05:48:49.127Z,10.82
2019-04-04T05:49:49.158Z,10.79
2019-04-04T05:50:49.117Z,10.78
2019-04-04T05:51:49.160Z,10.84
2019-04-04T05:52:49.104Z,10.78
2019-04-04T05:53:49.093Z,10.76
2019-04-04T05:54:49.144Z,10.82
2019-04-04T05:55:49.045Z,10.79
2019-04-04T05:56:49.683Z,10.78
2019-04-04T05:57:50.974Z,10.78
2019-04-04T05:58:49.017Z,10.78
2019-04-04T05:59:49.066Z,10.76
2019-04-04T06:00:49.001Z,10.76
2019-04-04T06:01:49.011Z,10.78
2019-04-04T06:02:48.976Z,10.84
2019-04-04T06:03:48.954Z,10.79
2019-04-04T06:04:51.338Z,10.91
2019-04-04T06:05:48.957Z,10.86
2019-04-04T06:06:48.920Z,10.94
2019-04-04T06:07:48.918Z,10.97
2019-04-04T06:08:48.903Z,10.97
2019-04-04T06:09:48.885Z,10.96
2019-04-04T06:10:50.110Z,11.02
2019-04-04T06:11:50.786Z,10.99
2019-04-04T06:12:48.855Z,10.97
2019-04-04T06:13:48.864Z,11.02
2019-04-04T06:14:48.838Z,11.10
2019-04-04T06:15:48.854Z,11.07
2019-04-04T06:16:48.863Z,11.07
2019-04-04T06:17:48.802Z,11.06
2019-04-04T06:18:49.235Z,11.17
2019-04-04T06:19:48.809Z,11.14
2019-04-04T06:20:49.082Z,11.17
2019-04-04T06:21:49.975Z,11.24
2019-04-04T06:22:50.021Z,11.32
2019-04-04T06:23:48.766Z,11.25
2019-04-04T06:24:48.719Z,11.27
2019-04-04T06:25:48.715Z,11.25
2019-04-04T06:26:48.710Z,11.32
2019-04-04T06:27:48.757Z,11.35
2019-04-04T06:28:48.672Z,11.32
2019-04-04T06:29:48.669Z,11.37
2019-04-04T06:30:48.663Z,11.36
2019-04-04T06:31:48.638Z,11.40
2019-04-04T06:32:48.663Z,11.44
2019-04-04T06:33:48.625Z,11.42
2019-04-04T06:34:48.632Z,11.40
2019-04-04T06:35:48.603Z,11.46
2019-04-04T06:36:49.099Z,11.46
2019-04-04T06:37:49.144Z,11.40
2019-04-04T06:38:49.961Z,11.47
2019-04-04T06:39:48.553Z,11.51
2019-04-04T06:40:48.544Z,11.51
2019-04-04T06:41:48.538Z,11.60
2019-04-04T06:42:48.577Z,11.55
2019-04-04T06:43:48.530Z,11.60
2019-04-04T06:44:48.507Z,11.65
2019-04-04T06:45:48.490Z,11.72
2019-04-04T06:46:48.502Z,11.73
2019-04-04T06:47:48.470Z,11.73
2019-04-04T06:48:48.479Z,11.78
2019-04-04T06:49:48.474Z,11.79
2019-04-04T06:50:48.435Z,11.80
2019-04-04T06:51:48.434Z,11.80
2019-04-04T06:52:50.453Z,11.85
2019-04-04T06:53:48.419Z,11.94
2019-04-04T06:54:48.434Z,11.94
2019-04-04T06:55:48.384Z,11.86
2019-04-04T06:56:48.365Z,11.98
2019-04-04T06:57:51.134Z,11.98
2019-04-04T06:58:48.404Z,12.07
2019-04-04T06:59:51.010Z,12.10
2019-04-04T07:00:49.893Z,12.13
2019-04-04T07:01:50.014Z,12.04
2019-04-04T07:02:48.299Z,12.19
2019-04-04T07:03:48.290Z,12.10
2019-04-04T07:04:48.309Z,12.13
2019-04-04T07:05:48.338Z,12.27
2019-04-04T07:06:48.252Z,12.19
2019-04-04T07:07:48.250Z,12.28
2019-04-04T07:08:48.235Z,12.37
2019-04-04T07:09:50.250Z,12.32
2019-04-04T07:10:57.465Z,12.38
2019-04-04T07:11:49.223Z,12.41
2019-04-04T07:12:49.014Z,12.45
2019-04-04T07:13:48.168Z,12.45
2019-04-04T07:14:49.528Z,12.46
2019-04-04T07:16:03.431Z,12.45
2019-04-04T07:16:49.279Z,12.59
2019-04-04T07:17:48.127Z,12.50
2019-04-04T07:18:48.110Z,12.52
2019-04-04T07:19:48.098Z,12.54
2019-04-04T07:20:48.900Z,12.65
2019-04-04T07:21:49.175Z,12.67
2019-04-04T07:22:48.115Z,12.60
2019-04-04T07:23:48.084Z,12.75
2019-04-04T07:24:48.042Z,12.75
2019-04-04T07:25:48.034Z,12.86
2019-04-04T07:26:48.091Z,12.79
2019-04-04T07:27:48.094Z,12.85
2019-04-04T07:28:50.119Z,12.95
2019-04-04T07:29:47.990Z,12.96
2019-04-04T07:30:48.008Z,13.00
2019-04-04T07:31:47.997Z,13.04
2019-04-04T07:32:47.959Z,13.05
2019-04-04T07:33:47.956Z,13.07
2019-04-04T07:34:47.958Z,13.23
2019-04-04T07:35:48.912Z,13.14
2019-04-04T07:36:49.182Z,13.26
2019-04-04T07:37:47.936Z,13.26
2019-04-04T07:38:47.900Z,13.29
2019-04-04T07:39:50.084Z,13.32
2019-04-04T07:40:47.886Z,13.33
2019-04-04T07:41:47.879Z,13.42
2019-04-04T07:42:48.116Z,13.30
2019-04-04T07:43:49.343Z,13.41
2019-04-04T07:44:47.825Z,13.42
2019-04-04T07:45:47.811Z,13.46
2019-04-04T07:46:47.800Z,13.49
2019-04-04T07:47:47.831Z,13.52
2019-04-04T07:48:51.294Z,13.55
2019-04-04T07:49:47.788Z,13.62
2019-04-04T07:50:47.771Z,13.60
2019-04-04T07:51:47.742Z,13.64
2019-04-04T07:52:47.739Z,13.63
2019-04-04T07:53:47.720Z,13.66
2019-04-04T07:54:47.732Z,13.71
2019-04-04T07:55:47.719Z,13.70
2019-04-04T07:56:48.880Z,13.87
2019-04-04T07:57:50.858Z,13.81
2019-04-04T07:58:47.660Z,13.81
2019-04-04T07:59:47.665Z,13.92
2019-04-04T08:00:47.671Z,13.89
2019-04-04T08:01:51.309Z,14.03
2019-04-04T08:02:47.626Z,14.07
2019-04-04T08:03:47.607Z,14.07
2019-04-04T08:04:47.616Z,14.06
2019-04-04T08:05:47.581Z,14.15
2019-04-04T08:06:47.569Z,14.22
2019-04-04T08:07:47.582Z,14.14
2019-04-04T08:08:47.586Z,14.25
2019-04-04T08:09:47.570Z,14.35
2019-04-04T08:10:47.531Z,14.25
2019-04-04T08:11:47.514Z,14.35
2019-04-04T08:12:47.515Z,14.43
2019-04-04T08:13:47.537Z,14.43
2019-04-04T08:14:47.503Z,14.46
2019-04-04T08:15:47.475Z,14.50
2019-04-04T08:16:47.459Z,14.45
2019-04-04T08:17:47.456Z,14.50
2019-04-04T08:18:47.459Z,14.51
2019-04-04T08:19:58.883Z,14.58
2019-04-04T08:20:48.416Z,14.54
2019-04-04T08:21:47.406Z,14.52
2019-04-04T08:22:47.427Z,14.55
2019-04-04T08:23:47.409Z,14.57
2019-04-04T08:24:47.374Z,14.57
2019-04-04T08:25:47.383Z,14.54
2019-04-04T08:26:47.348Z,14.54
2019-04-04T08:27:47.388Z,14.64
2019-04-04T08:28:47.329Z,14.61
2019-04-04T08:29:47.317Z,14.58
2019-04-04T08:30:47.311Z,14.69
2019-04-04T08:31:47.296Z,14.73
2019-04-04T08:32:47.278Z,14.68
2019-04-04T08:33:47.421Z,14.68
2019-04-04T08:34:47.260Z,14.61
2019-04-04T08:35:47.270Z,14.65
2019-04-04T08:36:47.261Z,14.57
2019-04-04T08:37:47.228Z,14.54
2019-04-04T08:38:47.241Z,14.51
2019-04-04T08:39:47.207Z,14.58
2019-04-04T08:40:47.220Z,14.55
2019-04-04T08:41:47.182Z,14.51
2019-04-04T08:42:47.178Z,14.47
2019-04-04T08:43:47.191Z,14.50
2019-04-04T08:44:47.174Z,14.50
2019-04-04T08:45:47.193Z,14.47
2019-04-04T08:46:47.137Z,14.54
2019-04-04T08:47:47.116Z,14.60
2019-04-04T08:48:47.114Z,14.58
2019-04-04T08:49:47.096Z,14.62
2019-04-04T08:50:47.103Z,14.61
2019-04-04T08:51:47.134Z,14.65
2019-04-04T08:52:47.062Z,14.72
2019-04-04T08:53:47.067Z,14.73
2019-04-04T08:54:47.034Z,14.75
2019-04-04T08:55:47.031Z,14.78
2019-04-04T08:56:47.016Z,14.73
2019-04-04T08:57:47.034Z,14.83
2019-04-04T08:58:47.021Z,14.84
2019-04-04T08:59:46.983Z,14.96
2019-04-04T09:00:46.969Z,14.92
2019-04-04T09:01:46.996Z,14.94
2019-04-04T09:02:46.948Z,15.09
2019-04-04T09:03:46.932Z,15.02
2019-04-04T09:04:46.924Z,15.03
2019-04-04T09:05:46.918Z,15.20
2019-04-04T09:06:46.927Z,15.16
2019-04-04T09:07:46.927Z,15.21
2019-04-04T09:08:46.884Z,15.20
2019-04-04T09:09:46.974Z,15.32
2019-04-04T09:10:46.861Z,15.29
2019-04-04T09:11:46.855Z,15.36
2019-04-04T09:12:46.879Z,15.43
2019-04-04T09:13:46.824Z,15.43
2019-04-04T09:14:46.820Z,15.47
2019-04-04T09:15:46.807Z,15.51
2019-04-04T09:16:46.804Z,15.46
2019-04-04T09:17:46.783Z,15.49
2019-04-04T09:18:46.793Z,15.54
2019-04-04T09:19:46.755Z,15.49
2019-04-04T09:20:46.742Z,15.59
2019-04-04T09:21:46.789Z,15.60
2019-04-04T09:22:46.723Z,15.64
2019-04-04T09:23:46.739Z,15.64
2019-04-04T09:24:46.698Z,15.65
2019-04-04T09:25:46.690Z,15.68
2019-04-04T09:26:46.677Z,15.68
2019-04-04T09:27:46.661Z,15.71
2019-04-04T09:28:46.684Z,15.76
2019-04-04T09:29:46.643Z,15.82
2019-04-04T09:30:46.628Z,15.80
2019-04-04T09:31:46.647Z,15.87
2019-04-04T09:32:46.615Z,15.90
2019-04-04T09:33:46.645Z,15.86
2019-04-04T09:34:46.588Z,15.90
2019-04-04T09:35:46.578Z,16.00
2019-04-04T09:36:46.559Z,16.02
2019-04-04T09:37:46.556Z,16.09
2019-04-04T09:38:46.594Z,16.12
2019-04-04T09:39:46.532Z,16.12
2019-04-04T09:40:46.518Z,16.23
2019-04-04T09:41:46.506Z,16.17
2019-04-04T09:42:46.502Z,16.15
2019-04-04T09:43:46.488Z,16.24
2019-04-04T09:44:46.517Z,16.28
2019-04-04T09:45:46.490Z,16.28
2019-04-04T09:46:46.458Z,16.30
2019-04-04T09:47:46.480Z,16.33
2019-04-04T09:48:46.431Z,16.35
2019-04-04T09:49:46.426Z,16.43
2019-04-04T09:50:46.404Z,16.39
2019-04-04T09:51:46.392Z,16.43
2019-04-04T09:52:46.434Z,16.34
2019-04-04T09:53:53.248Z,16.53
2019-04-04T09:54:47.392Z,16.43
2019-04-04T09:55:46.359Z,16.49
2019-04-04T09:56:46.360Z,16.66
2019-04-04T09:57:46.804Z,16.64
2019-04-04T09:58:46.317Z,16.70
2019-04-04T09:59:46.324Z,16.70
2019-04-04T10:00:46.300Z,16.75
2019-04-04T10:01:46.288Z,16.78
2019-04-04T10:02:46.281Z,16.81
2019-04-04T10:03:46.308Z,16.86
2019-04-04T10:04:46.245Z,16.93
2019-04-04T10:05:46.247Z,16.89
2019-04-04T10:06:46.223Z,16.94
2019-04-04T10:07:46.213Z,16.91
2019-04-04T10:08:46.212Z,17.08
2019-04-04T10:09:46.219Z,17.00
2019-04-04T10:10:46.180Z,17.00
2019-04-04T10:11:46.167Z,17.07
2019-04-04T10:12:46.167Z,17.06
2019-04-04T10:13:46.171Z,17.07
2019-04-04T10:14:46.133Z,17.07
2019-04-04T10:15:46.129Z,17.06
2019-04-04T10:16:46.187Z,17.16
2019-04-04T10:17:49.115Z,17.23
2019-04-04T10:18:46.095Z,17.25
2019-04-04T10:19:46.083Z,17.37
2019-04-04T10:20:46.069Z,17.38
2019-04-04T10:21:46.063Z,17.34
2019-04-04T10:22:46.072Z,17.48
2019-04-04T10:23:46.059Z,17.55
2019-04-04T10:24:46.047Z,17.52
2019-04-04T10:25:46.021Z,17.54
2019-04-04T10:26:46.005Z,17.51
2019-04-04T10:27:45.994Z,17.46
2019-04-04T10:28:46.004Z,17.62
2019-04-04T10:29:45.992Z,17.64
2019-04-04T10:30:45.960Z,17.70
2019-04-04T10:31:45.967Z,17.62
2019-04-04T10:32:45.944Z,17.75
2019-04-04T10:33:45.936Z,17.74
2019-04-04T10:34:45.992Z,17.72
2019-04-04T10:35:45.899Z,17.66
2019-04-04T10:36:45.887Z,17.74
2019-04-04T10:37:45.884Z,17.82
2019-04-04T10:38:45.865Z,17.79
2019-04-04T10:39:45.861Z,17.74
2019-04-04T10:40:46.267Z,17.79
2019-04-04T10:41:45.838Z,17.93
2019-04-04T10:42:45.840Z,17.89
2019-04-04T10:43:45.841Z,17.99
2019-04-04T10:44:45.839Z,17.96
2019-04-04T10:45:45.822Z,18.03
2019-04-04T10:46:45.785Z,18.02
2019-04-04T10:47:45.768Z,18.08
2019-04-04T10:48:45.785Z,18.17
2019-04-04T10:49:45.767Z,18.07
2019-04-04T10:50:45.769Z,18.25
2019-04-04T10:51:45.718Z,18.27
2019-04-04T10:52:45.709Z,18.08
2019-04-04T10:53:45.711Z,18.26
2019-04-04T10:54:45.696Z,18.27
2019-04-04T10:55:45.690Z,18.32
2019-04-04T10:56:45.694Z,18.26
2019-04-04T10:57:45.663Z,18.27
2019-04-04T10:58:45.648Z,18.35
2019-04-04T10:59:45.636Z,18.30
2019-04-04T11:00:45.625Z,18.37
2019-04-04T11:01:45.635Z,18.36
2019-04-04T11:02:45.604Z,18.36
2019-04-04T11:03:45.591Z,18.39
2019-04-04T11:04:45.577Z,18.42
2019-04-04T11:05:45.580Z,18.48
2019-04-04T11:06:46.307Z,18.51
2019-04-04T11:07:45.548Z,18.45
2019-04-04T11:08:45.532Z,18.47
2019-04-04T11:09:45.534Z,18.54
2019-04-04T11:10:45.510Z,18.50
2019-04-04T11:11:45.503Z,18.47
2019-04-04T11:12:45.515Z,18.57
2019-04-04T11:13:45.476Z,18.52
2019-04-04T11:14:45.470Z,18.51
2019-04-04T11:15:45.459Z,18.52
2019-04-04T11:16:45.445Z,18.62
2019-04-04T11:17:45.449Z,18.70
2019-04-04T11:18:45.423Z,18.62
2019-04-04T11:19:45.415Z,18.63
2019-04-04T11:20:45.400Z,18.62
2019-04-04T11:21:45.383Z,18.67
2019-04-04T11:22:45.409Z,18.84
2019-04-04T11:23:45.364Z,18.78
2019-04-04T11:24:45.359Z,18.80
2019-04-04T11:25:45.341Z,18.80
2019-04-04T11:26:45.336Z,18.88
2019-04-04T11:27:45.348Z,18.85
2019-04-04T11:28:45.308Z,18.85
2019-04-04T11:29:45.304Z,18.98
2019-04-04T11:30:45.288Z,18.94
2019-04-04T11:31:45.281Z,18.95
2019-04-04T11:32:45.288Z,19.10
2019-04-04T11:33:45.250Z,19.07
2019-04-04T11:34:53.165Z,19.21
2019-04-04T11:35:46.232Z,19.26
2019-04-04T11:36:45.214Z,19.21
2019-04-04T11:37:45.207Z,19.26
2019-04-04T11:38:45.197Z,19.28
2019-04-04T11:39:54.427Z,19.36
2019-04-04T11:40:46.218Z,19.39
2019-04-04T11:41:45.164Z,19.37
2019-04-04T11:42:45.154Z,19.37
2019-04-04T11:43:45.145Z,19.33
2019-04-04T11:44:45.151Z,19.51
2019-04-04T11:45:45.172Z,19.55
2019-04-04T11:46:45.111Z,19.58
2019-04-04T11:47:45.099Z,19.65
2019-04-04T11:48:45.101Z,19.66
2019-04-04T11:49:45.072Z,19.74
2019-04-04T11:50:45.066Z,19.76
2019-04-04T11:51:45.125Z,19.87
2019-04-04T11:52:45.045Z,19.88
2019-04-04T11:53:45.025Z,19.86
2019-04-04T11:54:45.019Z,19.84
2019-04-04T11:55:45.004Z,19.87
2019-04-04T11:56:44.999Z,19.86
2019-04-04T11:57:45.022Z,19.87
2019-04-04T11:58:44.976Z,19.88
2019-04-04T11:59:44.958Z,19.94
2019-04-04T12:00:45.046Z,19.86
2019-04-04T12:01:44.942Z,19.78
2019-04-04T12:02:44.934Z,19.81
2019-04-04T12:03:44.923Z,19.88
2019-04-04T12:04:44.900Z,19.86
2019-04-04T12:05:44.900Z,19.95
2019-04-04T12:06:44.912Z,19.86
2019-04-04T12:07:44.874Z,19.86
2019-04-04T12:08:44.854Z,19.84
2019-04-04T12:09:44.848Z,19.94
2019-04-04T12:10:44.864Z,19.92
2019-04-04T12:11:44.822Z,19.95
2019-04-04T12:12:44.828Z,20.01
2019-04-04T12:13:44.811Z,19.99
2019-04-04T12:14:44.818Z,20.03
2019-04-04T12:15:44.788Z,20.08
2019-04-04T12:16:44.770Z,20.05
2019-04-04T12:17:44.760Z,20.02
2019-04-04T12:18:44.748Z,20.10
2019-04-04T12:19:44.762Z,20.08
2019-04-04T12:20:44.721Z,20.10
2019-04-04T12:21:44.739Z,20.05
2019-04-04T12:22:44.704Z,19.98
2019-04-04T12:23:44.701Z,19.81
2019-04-04T12:24:44.698Z,19.86
2019-04-04T12:25:44.700Z,19.87
2019-04-04T12:26:44.658Z,19.80
2019-04-04T12:27:44.685Z,19.81
2019-04-04T12:28:44.641Z,19.98
2019-04-04T12:29:44.633Z,20.03
2019-04-04T12:30:44.615Z,20.14
2019-04-04T12:31:44.625Z,20.08
2019-04-04T12:32:44.594Z,20.10
2019-04-04T12:33:44.590Z,20.21
2019-04-04T12:34:44.601Z,20.23
2019-04-04T12:35:44.563Z,20.29
2019-04-04T12:36:44.582Z,20.42
2019-04-04T12:37:44.537Z,20.51
2019-04-04T12:38:44.521Z,20.50
2019-04-04T12:39:44.649Z,20.55
2019-04-04T12:40:44.496Z,20.55
2019-04-04T12:41:44.520Z,20.59
2019-04-04T12:42:44.485Z,20.67
2019-04-04T12:43:44.470Z,20.70
2019-04-04T12:44:44.504Z,20.74
2019-04-04T12:45:44.473Z,20.85
2019-04-04T12:46:44.463Z,20.80
2019-04-04T12:47:44.433Z,20.94
2019-04-04T12:48:44.414Z,20.95
2019-04-04T12:49:44.397Z,20.99
2019-04-04T12:50:44.418Z,20.95
2019-04-04T12:51:44.381Z,20.88
2019-04-04T12:52:44.408Z,20.99